sensor_id;sensor_type;location;lat;lon;timestamp;temperature;humidity
43679;DHT22;29279;50.858;4.392;2024-03-08T00:00:15;8.20;99.90
43679;DHT22;29279;50.858;4.392;2024-03-08T00:02:45;8.20;99.90
43679;DHT22;29279;50.858;4.392;2024-03-08T00:05:11;8.10;99.90
43679;DHT22;29279;50.858;4.392;2024-03-08T00:07:41;8.00;99.90
43679;DHT22;29279;50.858;4.392;2024-03-08T00:10:09;8.00;99.90
43679;DHT22;29279;50.858;4.392;2024-03-08T00:15:04;7.90;99.90
43679;DHT22;29279;50.858;4.392;2024-03-08T00:17:31;7.90;99.90
43679;DHT22;29279;50.858;4.392;2024-03-08T00:19:57;7.90;99.90
43679;DHT22;29279;50.858;4.392;2024-03-08T00:22:23;7.80;99.90
43679;DHT22;29279;50.858;4.392;2024-03-08T00:24:48;7.70;99.90
43679;DHT22;29279;50.858;4.392;2024-03-08T00:27:16;7.70;99.90
43679;DHT22;29279;50.858;4.392;2024-03-08T00:29:42;7.80;99.90
43679;DHT22;29279;50.858;4.392;2024-03-08T00:32:08;7.60;99.90
43679;DHT22;29279;50.858;4.392;2024-03-08T00:34:37;7.50;99.90
43679;DHT22;29279;50.858;4.392;2024-03-08T00:37:03;7.70;99.90
43679;DHT22;29279;50.858;4.392;2024-03-08T00:39:29;7.60;99.90
43679;DHT22;29279;50.858;4.392;2024-03-08T00:41:55;7.50;99.90
43679;DHT22;29279;50.858;4.392;2024-03-08T00:44:21;7.50;99.90
43679;DHT22;29279;50.858;4.392;2024-03-08T00:46:46;7.50;99.90
43679;DHT22;29279;50.858;4.392;2024-03-08T00:49:12;7.60;99.90
43679;DHT22;29279;50.858;4.392;2024-03-08T00:51:38;7.60;99.90
43679;DHT22;29279;50.858;4.392;2024-03-08T00:54:04;7.50;99.90
43679;DHT22;29279;50.858;4.392;2024-03-08T00:56:29;7.50;99.90
43679;DHT22;29279;50.858;4.392;2024-03-08T00:58:55;7.50;99.90
43679;DHT22;29279;50.858;4.392;2024-03-08T01:01:21;7.50;99.90
43679;DHT22;29279;50.858;4.392;2024-03-08T01:03:47;7.40;99.90
43679;DHT22;29279;50.858;4.392;2024-03-08T01:06:14;7.40;99.90
43679;DHT22;29279;50.858;4.392;2024-03-08T01:08:40;7.40;99.90
43679;DHT22;29279;50.858;4.392;2024-03-08T01:11:08;7.40;99.90
43679;DHT22;29279;50.858;4.392;2024-03-08T01:13:34;7.30;99.90
43679;DHT22;29279;50.858;4.392;2024-03-08T01:16:00;7.30;99.90
43679;DHT22;29279;50.858;4.392;2024-03-08T01:18:26;7.30;99.90
43679;DHT22;29279;50.858;4.392;2024-03-08T01:20:52;7.30;99.90
43679;DHT22;29279;50.858;4.392;2024-03-08T01:23:17;7.30;99.90
43679;DHT22;29279;50.858;4.392;2024-03-08T01:25:43;7.30;99.90
43679;DHT22;29279;50.858;4.392;2024-03-08T01:28:09;7.30;99.90
43679;DHT22;29279;50.858;4.392;2024-03-08T01:30:35;7.30;99.90
43679;DHT22;29279;50.858;4.392;2024-03-08T01:33:02;7.30;99.90
43679;DHT22;29279;50.858;4.392;2024-03-08T01:35:28;7.30;99.90
43679;DHT22;29279;50.858;4.392;2024-03-08T01:37:54;7.30;99.90
43679;DHT22;29279;50.858;4.392;2024-03-08T01:40:20;7.20;99.90
43679;DHT22;29279;50.858;4.392;2024-03-08T01:42:46;7.20;99.90
43679;DHT22;29279;50.858;4.392;2024-03-08T01:45:13;7.20;99.90
43679;DHT22;29279;50.858;4.392;2024-03-08T01:47:39;7.20;99.90
43679;DHT22;29279;50.858;4.392;2024-03-08T01:50:05;7.30;99.90
43679;DHT22;29279;50.858;4.392;2024-03-08T01:52:35;7.20;99.90
43679;DHT22;29279;50.858;4.392;2024-03-08T01:55:03;7.30;99.90
43679;DHT22;29279;50.858;4.392;2024-03-08T01:57:32;7.30;99.90
43679;DHT22;29279;50.858;4.392;2024-03-08T02:00:04;7.20;99.90
43679;DHT22;29279;50.858;4.392;2024-03-08T02:02:32;7.20;99.90
43679;DHT22;29279;50.858;4.392;2024-03-08T02:04:58;7.20;99.90
43679;DHT22;29279;50.858;4.392;2024-03-08T02:07:23;7.20;99.90
43679;DHT22;29279;50.858;4.392;2024-03-08T02:09:49;7.20;99.90
43679;DHT22;29279;50.858;4.392;2024-03-08T02:12:16;7.10;99.90
43679;DHT22;29279;50.858;4.392;2024-03-08T02:14:42;7.20;99.90
43679;DHT22;29279;50.858;4.392;2024-03-08T02:17:09;7.10;99.90
43679;DHT22;29279;50.858;4.392;2024-03-08T02:19:35;7.00;99.90
43679;DHT22;29279;50.858;4.392;2024-03-08T02:22:01;6.80;99.90
43679;DHT22;29279;50.858;4.392;2024-03-08T02:24:30;6.80;99.90
43679;DHT22;29279;50.858;4.392;2024-03-08T02:26:55;6.80;99.90
43679;DHT22;29279;50.858;4.392;2024-03-08T02:29:22;6.80;99.90
43679;DHT22;29279;50.858;4.392;2024-03-08T02:31:51;6.80;99.90
43679;DHT22;29279;50.858;4.392;2024-03-08T02:34:17;6.70;99.90
43679;DHT22;29279;50.858;4.392;2024-03-08T02:36:42;6.80;99.90
43679;DHT22;29279;50.858;4.392;2024-03-08T02:39:08;6.90;99.90
43679;DHT22;29279;50.858;4.392;2024-03-08T02:41:36;6.90;99.90
43679;DHT22;29279;50.858;4.392;2024-03-08T02:44:02;7.00;99.90
43679;DHT22;29279;50.858;4.392;2024-03-08T02:46:27;7.00;99.90
43679;DHT22;29279;50.858;4.392;2024-03-08T02:48:53;7.00;99.90
43679;DHT22;29279;50.858;4.392;2024-03-08T02:51:19;6.90;99.90
43679;DHT22;29279;50.858;4.392;2024-03-08T02:53:45;6.90;99.90
43679;DHT22;29279;50.858;4.392;2024-03-08T02:56:14;6.90;99.90
43679;DHT22;29279;50.858;4.392;2024-03-08T02:58:42;6.90;99.90
43679;DHT22;29279;50.858;4.392;2024-03-08T03:01:08;6.80;99.90
43679;DHT22;29279;50.858;4.392;2024-03-08T03:03:35;6.70;99.90
43679;DHT22;29279;50.858;4.392;2024-03-08T03:06:01;6.70;99.90
43679;DHT22;29279;50.858;4.392;2024-03-08T03:08:27;6.80;99.90
43679;DHT22;29279;50.858;4.392;2024-03-08T03:10:53;6.80;99.90
43679;DHT22;29279;50.858;4.392;2024-03-08T03:13:22;6.80;99.90
43679;DHT22;29279;50.858;4.392;2024-03-08T03:15:48;6.70;99.90
43679;DHT22;29279;50.858;4.392;2024-03-08T03:18:14;6.70;99.90
43679;DHT22;29279;50.858;4.392;2024-03-08T03:20:41;6.60;99.90
43679;DHT22;29279;50.858;4.392;2024-03-08T03:23:08;6.60;99.90
43679;DHT22;29279;50.858;4.392;2024-03-08T03:25:34;6.80;99.90
43679;DHT22;29279;50.858;4.392;2024-03-08T03:28:01;6.80;99.90
43679;DHT22;29279;50.858;4.392;2024-03-08T03:30:28;6.80;99.90
43679;DHT22;29279;50.858;4.392;2024-03-08T03:32:59;6.80;99.90
43679;DHT22;29279;50.858;4.392;2024-03-08T03:35:29;6.80;99.90
43679;DHT22;29279;50.858;4.392;2024-03-08T03:37:55;6.90;99.90
43679;DHT22;29279;50.858;4.392;2024-03-08T03:40:30;6.80;99.90
43679;DHT22;29279;50.858;4.392;2024-03-08T03:42:56;6.70;99.90
43679;DHT22;29279;50.858;4.392;2024-03-08T03:45:23;6.70;99.90
43679;DHT22;29279;50.858;4.392;2024-03-08T03:47:49;6.60;99.90
43679;DHT22;29279;50.858;4.392;2024-03-08T03:50:15;6.70;99.90
43679;DHT22;29279;50.858;4.392;2024-03-08T03:52:40;6.60;99.90
43679;DHT22;29279;50.858;4.392;2024-03-08T03:55:08;6.50;99.90
43679;DHT22;29279;50.858;4.392;2024-03-08T03:57:34;6.50;99.90
43679;DHT22;29279;50.858;4.392;2024-03-08T03:59:59;6.50;99.90
43679;DHT22;29279;50.858;4.392;2024-03-08T04:02:25;6.50;99.90
43679;DHT22;29279;50.858;4.392;2024-03-08T04:04:52;6.40;99.90
43679;DHT22;29279;50.858;4.392;2024-03-08T04:07:20;6.40;99.90
43679;DHT22;29279;50.858;4.392;2024-03-08T04:09:46;6.40;99.90
43679;DHT22;29279;50.858;4.392;2024-03-08T04:12:12;6.50;99.90
43679;DHT22;29279;50.858;4.392;2024-03-08T04:14:40;6.40;99.90
43679;DHT22;29279;50.858;4.392;2024-03-08T04:17:06;6.40;99.90
43679;DHT22;29279;50.858;4.392;2024-03-08T04:19:34;6.20;99.90
43679;DHT22;29279;50.858;4.392;2024-03-08T04:22:01;6.30;99.90
43679;DHT22;29279;50.858;4.392;2024-03-08T04:24:27;6.30;99.90
43679;DHT22;29279;50.858;4.392;2024-03-08T04:26:53;6.30;99.90
43679;DHT22;29279;50.858;4.392;2024-03-08T04:29:20;6.40;99.90
43679;DHT22;29279;50.858;4.392;2024-03-08T04:31:45;6.50;99.90
43679;DHT22;29279;50.858;4.392;2024-03-08T04:34:12;6.50;99.90
43679;DHT22;29279;50.858;4.392;2024-03-08T04:36:38;6.50;99.90
43679;DHT22;29279;50.858;4.392;2024-03-08T04:39:04;6.50;99.90
43679;DHT22;29279;50.858;4.392;2024-03-08T04:41:30;6.50;99.90
43679;DHT22;29279;50.858;4.392;2024-03-08T04:43:56;6.50;99.90
43679;DHT22;29279;50.858;4.392;2024-03-08T04:46:23;6.40;99.90
43679;DHT22;29279;50.858;4.392;2024-03-08T04:48:49;6.20;99.90
43679;DHT22;29279;50.858;4.392;2024-03-08T04:51:15;6.10;99.90
43679;DHT22;29279;50.858;4.392;2024-03-08T04:53:41;6.20;99.90
43679;DHT22;29279;50.858;4.392;2024-03-08T04:56:07;6.20;99.90
43679;DHT22;29279;50.858;4.392;2024-03-08T04:58:35;6.20;99.90
43679;DHT22;29279;50.858;4.392;2024-03-08T05:01:02;6.20;99.90
43679;DHT22;29279;50.858;4.392;2024-03-08T05:03:27;6.10;99.90
43679;DHT22;29279;50.858;4.392;2024-03-08T05:05:53;6.00;99.90
43679;DHT22;29279;50.858;4.392;2024-03-08T05:08:19;5.90;99.90
43679;DHT22;29279;50.858;4.392;2024-03-08T05:10:45;6.00;99.90
43679;DHT22;29279;50.858;4.392;2024-03-08T05:13:12;6.10;99.90
43679;DHT22;29279;50.858;4.392;2024-03-08T05:15:38;6.10;99.90
43679;DHT22;29279;50.858;4.392;2024-03-08T05:18:05;6.00;99.90
43679;DHT22;29279;50.858;4.392;2024-03-08T05:20:30;6.10;99.90
43679;DHT22;29279;50.858;4.392;2024-03-08T05:22:56;6.10;99.90
43679;DHT22;29279;50.858;4.392;2024-03-08T05:25:26;6.20;99.90
43679;DHT22;29279;50.858;4.392;2024-03-08T05:27:52;6.30;99.90
43679;DHT22;29279;50.858;4.392;2024-03-08T05:30:18;6.20;99.90
43679;DHT22;29279;50.858;4.392;2024-03-08T05:32:43;6.20;99.90
43679;DHT22;29279;50.858;4.392;2024-03-08T05:35:13;6.20;99.90
43679;DHT22;29279;50.858;4.392;2024-03-08T05:37:41;6.20;99.90
43679;DHT22;29279;50.858;4.392;2024-03-08T05:40:08;6.10;99.90
43679;DHT22;29279;50.858;4.392;2024-03-08T05:42:37;6.00;99.90
43679;DHT22;29279;50.858;4.392;2024-03-08T05:45:03;6.00;99.90
43679;DHT22;29279;50.858;4.392;2024-03-08T05:47:29;6.10;99.90
43679;DHT22;29279;50.858;4.392;2024-03-08T05:49:55;6.00;99.90
43679;DHT22;29279;50.858;4.392;2024-03-08T05:52:21;6.00;99.90
43679;DHT22;29279;50.858;4.392;2024-03-08T05:54:46;6.00;99.90
43679;DHT22;29279;50.858;4.392;2024-03-08T05:57:12;5.90;99.90
43679;DHT22;29279;50.858;4.392;2024-03-08T05:59:39;6.00;99.90
43679;DHT22;29279;50.858;4.392;2024-03-08T06:02:05;6.00;99.90
43679;DHT22;29279;50.858;4.392;2024-03-08T06:04:31;6.00;99.90
43679;DHT22;29279;50.858;4.392;2024-03-08T06:06:57;6.00;99.90
43679;DHT22;29279;50.858;4.392;2024-03-08T06:09:26;5.90;99.90
43679;DHT22;29279;50.858;4.392;2024-03-08T06:11:52;6.00;99.90
43679;DHT22;29279;50.858;4.392;2024-03-08T06:14:19;5.90;99.90
43679;DHT22;29279;50.858;4.392;2024-03-08T06:16:45;5.90;99.90
43679;DHT22;29279;50.858;4.392;2024-03-08T06:19:12;5.80;99.90
43679;DHT22;29279;50.858;4.392;2024-03-08T06:21:38;6.00;99.90
43679;DHT22;29279;50.858;4.392;2024-03-08T06:24:04;5.90;99.90
43679;DHT22;29279;50.858;4.392;2024-03-08T06:26:30;5.70;99.90
43679;DHT22;29279;50.858;4.392;2024-03-08T06:28:57;5.70;99.90
43679;DHT22;29279;50.858;4.392;2024-03-08T06:31:23;5.80;99.90
43679;DHT22;29279;50.858;4.392;2024-03-08T06:33:49;5.80;99.90
43679;DHT22;29279;50.858;4.392;2024-03-08T06:36:18;5.90;99.90
43679;DHT22;29279;50.858;4.392;2024-03-08T06:38:48;6.00;99.90
43679;DHT22;29279;50.858;4.392;2024-03-08T06:41:14;6.00;99.90
43679;DHT22;29279;50.858;4.392;2024-03-08T06:43:44;6.00;99.90
43679;DHT22;29279;50.858;4.392;2024-03-08T06:46:10;6.10;99.90
43679;DHT22;29279;50.858;4.392;2024-03-08T06:48:38;6.00;99.90
43679;DHT22;29279;50.858;4.392;2024-03-08T06:51:04;6.10;99.90
43679;DHT22;29279;50.858;4.392;2024-03-08T06:53:31;6.10;99.90
43679;DHT22;29279;50.858;4.392;2024-03-08T06:56:00;6.00;99.90
43679;DHT22;29279;50.858;4.392;2024-03-08T06:58:26;6.00;99.90
43679;DHT22;29279;50.858;4.392;2024-03-08T07:00:51;6.10;99.90
43679;DHT22;29279;50.858;4.392;2024-03-08T07:03:18;6.10;99.90
43679;DHT22;29279;50.858;4.392;2024-03-08T07:05:43;6.00;99.90
43679;DHT22;29279;50.858;4.392;2024-03-08T07:08:10;5.90;99.90
43679;DHT22;29279;50.858;4.392;2024-03-08T07:10:35;5.90;99.90
43679;DHT22;29279;50.858;4.392;2024-03-08T07:13:03;6.00;99.90
43679;DHT22;29279;50.858;4.392;2024-03-08T07:15:28;6.00;99.90
43679;DHT22;29279;50.858;4.392;2024-03-08T07:17:54;6.10;99.90
43679;DHT22;29279;50.858;4.392;2024-03-08T07:20:20;6.20;99.90
43679;DHT22;29279;50.858;4.392;2024-03-08T07:22:47;6.10;99.90
43679;DHT22;29279;50.858;4.392;2024-03-08T07:25:13;6.20;99.90
43679;DHT22;29279;50.858;4.392;2024-03-08T07:27:51;6.30;99.90
43679;DHT22;29279;50.858;4.392;2024-03-08T07:30:17;6.30;99.90
43679;DHT22;29279;50.858;4.392;2024-03-08T07:33:02;6.40;99.90
43679;DHT22;29279;50.858;4.392;2024-03-08T07:35:28;6.50;99.90
43679;DHT22;29279;50.858;4.392;2024-03-08T07:37:54;6.60;99.90
43679;DHT22;29279;50.858;4.392;2024-03-08T07:40:21;6.60;99.90
43679;DHT22;29279;50.858;4.392;2024-03-08T07:42:47;6.70;99.90
43679;DHT22;29279;50.858;4.392;2024-03-08T07:45:12;6.70;99.90
43679;DHT22;29279;50.858;4.392;2024-03-08T07:47:38;6.90;99.90
43679;DHT22;29279;50.858;4.392;2024-03-08T07:50:06;7.00;99.90
43679;DHT22;29279;50.858;4.392;2024-03-08T07:52:34;7.10;99.90
43679;DHT22;29279;50.858;4.392;2024-03-08T07:55:00;7.10;99.90
43679;DHT22;29279;50.858;4.392;2024-03-08T07:57:26;7.10;99.90
43679;DHT22;29279;50.858;4.392;2024-03-08T07:59:52;7.00;99.90
43679;DHT22;29279;50.858;4.392;2024-03-08T08:02:17;7.10;99.90
43679;DHT22;29279;50.858;4.392;2024-03-08T08:04:43;7.10;99.90
43679;DHT22;29279;50.858;4.392;2024-03-08T08:07:10;7.30;99.90
43679;DHT22;29279;50.858;4.392;2024-03-08T08:09:36;7.50;99.90
43679;DHT22;29279;50.858;4.392;2024-03-08T08:12:03;7.50;99.90
43679;DHT22;29279;50.858;4.392;2024-03-08T08:14:29;7.60;99.90
43679;DHT22;29279;50.858;4.392;2024-03-08T08:16:56;7.70;99.90
43679;DHT22;29279;50.858;4.392;2024-03-08T08:19:23;7.90;99.90
43679;DHT22;29279;50.858;4.392;2024-03-08T08:21:49;8.10;99.90
43679;DHT22;29279;50.858;4.392;2024-03-08T08:24:15;8.10;99.90
43679;DHT22;29279;50.858;4.392;2024-03-08T08:26:41;8.20;99.90
43679;DHT22;29279;50.858;4.392;2024-03-08T08:29:07;8.30;99.90
43679;DHT22;29279;50.858;4.392;2024-03-08T08:31:33;8.40;99.90
43679;DHT22;29279;50.858;4.392;2024-03-08T08:33:59;8.80;99.90
43679;DHT22;29279;50.858;4.392;2024-03-08T08:36:25;8.90;99.90
43679;DHT22;29279;50.858;4.392;2024-03-08T08:38:51;9.30;99.90
43679;DHT22;29279;50.858;4.392;2024-03-08T08:41:19;9.60;99.90
43679;DHT22;29279;50.858;4.392;2024-03-08T08:43:47;10.10;99.90
43679;DHT22;29279;50.858;4.392;2024-03-08T08:46:17;10.60;99.90
43679;DHT22;29279;50.858;4.392;2024-03-08T08:48:42;10.90;99.90
43679;DHT22;29279;50.858;4.392;2024-03-08T08:51:11;11.50;99.90
43679;DHT22;29279;50.858;4.392;2024-03-08T08:53:41;12.10;99.90
43679;DHT22;29279;50.858;4.392;2024-03-08T08:56:12;13.10;99.90
43679;DHT22;29279;50.858;4.392;2024-03-08T08:58:39;13.70;98.10
43679;DHT22;29279;50.858;4.392;2024-03-08T09:01:08;14.40;97.50
43679;DHT22;29279;50.858;4.392;2024-03-08T09:03:36;15.00;95.00
43679;DHT22;29279;50.858;4.392;2024-03-08T09:06:03;15.30;94.80
43679;DHT22;29279;50.858;4.392;2024-03-08T09:08:29;15.90;92.70
43679;DHT22;29279;50.858;4.392;2024-03-08T09:10:55;16.40;92.80
43679;DHT22;29279;50.858;4.392;2024-03-08T09:13:21;17.10;92.60
43679;DHT22;29279;50.858;4.392;2024-03-08T09:15:46;17.90;90.30
43679;DHT22;29279;50.858;4.392;2024-03-08T09:18:12;18.30;89.80
43679;DHT22;29279;50.858;4.392;2024-03-08T09:20:38;18.80;86.20
43679;DHT22;29279;50.858;4.392;2024-03-08T09:23:06;18.90;83.00
43679;DHT22;29279;50.858;4.392;2024-03-08T09:25:33;19.00;84.00
43679;DHT22;29279;50.858;4.392;2024-03-08T09:27:59;19.30;83.30
43679;DHT22;29279;50.858;4.392;2024-03-08T09:30:25;19.60;81.20
43679;DHT22;29279;50.858;4.392;2024-03-08T09:32:51;19.60;80.80
43679;DHT22;29279;50.858;4.392;2024-03-08T09:35:16;19.90;80.10
43679;DHT22;29279;50.858;4.392;2024-03-08T09:37:42;20.00;77.80
43679;DHT22;29279;50.858;4.392;2024-03-08T09:40:08;19.10;79.60
43679;DHT22;29279;50.858;4.392;2024-03-08T09:42:41;19.10;77.50
43679;DHT22;29279;50.858;4.392;2024-03-08T09:45:11;19.00;78.50
43679;DHT22;29279;50.858;4.392;2024-03-08T09:47:44;17.60;78.80
43679;DHT22;29279;50.858;4.392;2024-03-08T09:50:11;17.90;79.80
43679;DHT22;29279;50.858;4.392;2024-03-08T09:52:41;18.10;78.90
43679;DHT22;29279;50.858;4.392;2024-03-08T09:55:09;18.60;78.90
43679;DHT22;29279;50.858;4.392;2024-03-08T09:57:37;19.10;79.00
43679;DHT22;29279;50.858;4.392;2024-03-08T10:00:04;19.40;77.40
43679;DHT22;29279;50.858;4.392;2024-03-08T10:02:47;19.50;76.70
43679;DHT22;29279;50.858;4.392;2024-03-08T10:05:14;19.10;76.90
43679;DHT22;29279;50.858;4.392;2024-03-08T10:07:40;19.60;77.40
43679;DHT22;29279;50.858;4.392;2024-03-08T10:10:06;20.40;76.20
43679;DHT22;29279;50.858;4.392;2024-03-08T10:12:34;21.10;76.00
43679;DHT22;29279;50.858;4.392;2024-03-08T10:15:00;22.00;73.60
43679;DHT22;29279;50.858;4.392;2024-03-08T10:17:26;22.30;72.80
43679;DHT22;29279;50.858;4.392;2024-03-08T10:19:52;21.10;70.90
43679;DHT22;29279;50.858;4.392;2024-03-08T10:22:19;20.90;72.50
43679;DHT22;29279;50.858;4.392;2024-03-08T10:24:46;21.30;71.20
43679;DHT22;29279;50.858;4.392;2024-03-08T10:27:12;21.50;71.20
43679;DHT22;29279;50.858;4.392;2024-03-08T10:29:37;21.20;70.60
43679;DHT22;29279;50.858;4.392;2024-03-08T10:32:08;19.90;70.20
43679;DHT22;29279;50.858;4.392;2024-03-08T10:34:34;19.30;74.60
43679;DHT22;29279;50.858;4.392;2024-03-08T10:37:04;17.90;75.00
43679;DHT22;29279;50.858;4.392;2024-03-08T10:39:35;18.70;75.80
43679;DHT22;29279;50.858;4.392;2024-03-08T10:42:03;19.30;73.30
43679;DHT22;29279;50.858;4.392;2024-03-08T10:52:30;20.60;69.80
43679;DHT22;29279;50.858;4.392;2024-03-08T10:54:57;18.00;73.10
43679;DHT22;29279;50.858;4.392;2024-03-08T10:57:24;18.10;75.20
43679;DHT22;29279;50.858;4.392;2024-03-08T10:59:51;18.50;74.20
43679;DHT22;29279;50.858;4.392;2024-03-08T11:02:17;19.30;74.00
43679;DHT22;29279;50.858;4.392;2024-03-08T11:04:53;20.10;72.60
43679;DHT22;29279;50.858;4.392;2024-03-08T11:07:22;20.50;73.90
43679;DHT22;29279;50.858;4.392;2024-03-08T11:09:48;21.10;71.60
43679;DHT22;29279;50.858;4.392;2024-03-08T11:12:24;21.30;71.30
43679;DHT22;29279;50.858;4.392;2024-03-08T11:14:52;19.90;70.50
43679;DHT22;29279;50.858;4.392;2024-03-08T11:20:15;22.30;71.90
43679;DHT22;29279;50.858;4.392;2024-03-08T11:22:54;22.40;69.50
43679;DHT22;29279;50.858;4.392;2024-03-08T11:25:40;21.30;71.60
43679;DHT22;29279;50.858;4.392;2024-03-08T11:28:13;22.00;71.70
43679;DHT22;29279;50.858;4.392;2024-03-08T11:30:47;22.70;67.30
43679;DHT22;29279;50.858;4.392;2024-03-08T11:33:35;22.50;69.50
43679;DHT22;29279;50.858;4.392;2024-03-08T11:38:44;21.60;68.10
43679;DHT22;29279;50.858;4.392;2024-03-08T11:41:09;19.80;69.40
43679;DHT22;29279;50.858;4.392;2024-03-08T11:43:40;18.50;71.80
43679;DHT22;29279;50.858;4.392;2024-03-08T11:46:10;18.80;73.40
43679;DHT22;29279;50.858;4.392;2024-03-08T11:48:41;20.00;73.00
43679;DHT22;29279;50.858;4.392;2024-03-08T11:51:08;19.50;71.70
43679;DHT22;29279;50.858;4.392;2024-03-08T11:53:34;20.00;71.60
43679;DHT22;29279;50.858;4.392;2024-03-08T11:56:11;21.10;72.30
43679;DHT22;29279;50.858;4.392;2024-03-08T11:58:38;22.00;69.80
43679;DHT22;29279;50.858;4.392;2024-03-08T12:01:14;22.80;69.70
43679;DHT22;29279;50.858;4.392;2024-03-08T12:03:42;23.60;69.00
43679;DHT22;29279;50.858;4.392;2024-03-08T12:06:09;24.50;66.30
43679;DHT22;29279;50.858;4.392;2024-03-08T12:08:37;24.30;66.50
43679;DHT22;29279;50.858;4.392;2024-03-08T12:11:07;25.00;66.60
43679;DHT22;29279;50.858;4.392;2024-03-08T12:13:35;25.30;64.30
43679;DHT22;29279;50.858;4.392;2024-03-08T12:16:04;25.00;65.40
43679;DHT22;29279;50.858;4.392;2024-03-08T12:18:34;24.80;65.80
43679;DHT22;29279;50.858;4.392;2024-03-08T12:21:11;25.40;63.40
43679;DHT22;29279;50.858;4.392;2024-03-08T12:23:39;25.20;65.50
43679;DHT22;29279;50.858;4.392;2024-03-08T12:26:38;25.00;63.20
43679;DHT22;29279;50.858;4.392;2024-03-08T12:29:18;22.10;66.90
43679;DHT22;29279;50.858;4.392;2024-03-08T12:31:46;22.20;68.40
43679;DHT22;29279;50.858;4.392;2024-03-08T12:34:13;23.30;67.40
43679;DHT22;29279;50.858;4.392;2024-03-08T12:36:50;24.40;65.30
43679;DHT22;29279;50.858;4.392;2024-03-08T12:39:22;24.80;63.50
43679;DHT22;29279;50.858;4.392;2024-03-08T12:41:48;24.80;62.80
43679;DHT22;29279;50.858;4.392;2024-03-08T12:44:17;24.60;63.70
43679;DHT22;29279;50.858;4.392;2024-03-08T12:46:44;24.70;64.60
43679;DHT22;29279;50.858;4.392;2024-03-08T12:49:10;25.10;63.60
43679;DHT22;29279;50.858;4.392;2024-03-08T12:51:38;25.20;62.80
43679;DHT22;29279;50.858;4.392;2024-03-08T12:54:05;25.10;64.00
43679;DHT22;29279;50.858;4.392;2024-03-08T12:56:33;25.50;63.40
43679;DHT22;29279;50.858;4.392;2024-03-08T12:59:00;25.80;62.10
43679;DHT22;29279;50.858;4.392;2024-03-08T13:01:26;25.10;62.40
43679;DHT22;29279;50.858;4.392;2024-03-08T13:03:55;24.50;62.40
43679;DHT22;29279;50.858;4.392;2024-03-08T13:06:21;24.40;62.40
43679;DHT22;29279;50.858;4.392;2024-03-08T13:08:53;25.10;63.00
43679;DHT22;29279;50.858;4.392;2024-03-08T13:11:19;25.20;63.40
43679;DHT22;29279;50.858;4.392;2024-03-08T13:13:45;25.50;62.60
43679;DHT22;29279;50.858;4.392;2024-03-08T13:16:12;25.40;63.00
43679;DHT22;29279;50.858;4.392;2024-03-08T13:18:41;25.40;61.80
43679;DHT22;29279;50.858;4.392;2024-03-08T13:21:12;25.20;61.60
43679;DHT22;29279;50.858;4.392;2024-03-08T13:23:41;25.20;61.80
43679;DHT22;29279;50.858;4.392;2024-03-08T13:26:12;25.00;63.70
43679;DHT22;29279;50.858;4.392;2024-03-08T13:28:45;24.40;64.10
43679;DHT22;29279;50.858;4.392;2024-03-08T13:31:11;25.10;61.70
43679;DHT22;29279;50.858;4.392;2024-03-08T13:33:37;25.60;61.90
43679;DHT22;29279;50.858;4.392;2024-03-08T13:36:05;25.90;62.50
43679;DHT22;29279;50.858;4.392;2024-03-08T13:38:32;26.30;61.90
43679;DHT22;29279;50.858;4.392;2024-03-08T13:41:01;26.40;61.00
43679;DHT22;29279;50.858;4.392;2024-03-08T13:43:28;25.70;62.20
43679;DHT22;29279;50.858;4.392;2024-03-08T13:45:57;25.80;62.60
43679;DHT22;29279;50.858;4.392;2024-03-08T13:48:22;25.90;60.30
43679;DHT22;29279;50.858;4.392;2024-03-08T13:50:49;25.90;60.50
43679;DHT22;29279;50.858;4.392;2024-03-08T13:53:15;25.30;61.70
43679;DHT22;29279;50.858;4.392;2024-03-08T13:55:41;25.70;60.60
43679;DHT22;29279;50.858;4.392;2024-03-08T13:58:07;25.80;61.50
43679;DHT22;29279;50.858;4.392;2024-03-08T14:00:38;25.50;61.10
43679;DHT22;29279;50.858;4.392;2024-03-08T14:03:04;25.60;59.60
43679;DHT22;29279;50.858;4.392;2024-03-08T14:05:31;25.60;59.50
43679;DHT22;29279;50.858;4.392;2024-03-08T14:08:01;25.50;61.30
43679;DHT22;29279;50.858;4.392;2024-03-08T14:10:30;26.00;59.70
43679;DHT22;29279;50.858;4.392;2024-03-08T14:12:57;25.20;60.70
43679;DHT22;29279;50.858;4.392;2024-03-08T14:15:23;25.30;59.80
43679;DHT22;29279;50.858;4.392;2024-03-08T14:17:54;25.00;60.70
43679;DHT22;29279;50.858;4.392;2024-03-08T14:20:21;25.50;59.90
43679;DHT22;29279;50.858;4.392;2024-03-08T14:22:54;25.50;59.30
43679;DHT22;29279;50.858;4.392;2024-03-08T14:25:21;25.60;59.70
43679;DHT22;29279;50.858;4.392;2024-03-08T14:27:52;25.80;59.20
43679;DHT22;29279;50.858;4.392;2024-03-08T14:30:27;25.50;60.20
43679;DHT22;29279;50.858;4.392;2024-03-08T14:33:19;25.50;59.40
43679;DHT22;29279;50.858;4.392;2024-03-08T14:35:45;25.60;61.20
43679;DHT22;29279;50.858;4.392;2024-03-08T14:38:15;25.80;60.30
43679;DHT22;29279;50.858;4.392;2024-03-08T14:40:43;25.70;60.50
43679;DHT22;29279;50.858;4.392;2024-03-08T14:43:12;25.40;60.00
43679;DHT22;29279;50.858;4.392;2024-03-08T14:45:42;25.40;61.70
43679;DHT22;29279;50.858;4.392;2024-03-08T14:48:07;25.20;59.60
43679;DHT22;29279;50.858;4.392;2024-03-08T14:50:34;24.70;60.00
43679;DHT22;29279;50.858;4.392;2024-03-08T14:53:02;24.10;61.20
43679;DHT22;29279;50.858;4.392;2024-03-08T14:55:31;24.10;61.20
43679;DHT22;29279;50.858;4.392;2024-03-08T14:57:57;23.80;60.50
43679;DHT22;29279;50.858;4.392;2024-03-08T15:00:23;23.30;63.20
43679;DHT22;29279;50.858;4.392;2024-03-08T15:03:01;23.00;62.10
43679;DHT22;29279;50.858;4.392;2024-03-08T15:05:34;22.70;64.00
43679;DHT22;29279;50.858;4.392;2024-03-08T15:08:03;22.50;63.70
43679;DHT22;29279;50.858;4.392;2024-03-08T15:10:35;22.60;64.50
43679;DHT22;29279;50.858;4.392;2024-03-08T15:13:01;22.60;63.50
43679;DHT22;29279;50.858;4.392;2024-03-08T15:15:28;22.60;63.50
43679;DHT22;29279;50.858;4.392;2024-03-08T15:17:55;22.20;64.10
43679;DHT22;29279;50.858;4.392;2024-03-08T15:20:23;21.80;64.20
43679;DHT22;29279;50.858;4.392;2024-03-08T15:22:51;21.70;64.50
43679;DHT22;29279;50.858;4.392;2024-03-08T15:25:20;21.60;65.40
43679;DHT22;29279;50.858;4.392;2024-03-08T15:27:52;21.10;64.90
43679;DHT22;29279;50.858;4.392;2024-03-08T15:30:18;20.70;66.30
43679;DHT22;29279;50.858;4.392;2024-03-08T15:32:48;20.40;66.30
43679;DHT22;29279;50.858;4.392;2024-03-08T15:35:22;20.00;67.80
43679;DHT22;29279;50.858;4.392;2024-03-08T15:37:48;20.00;67.10
43679;DHT22;29279;50.858;4.392;2024-03-08T15:40:14;19.70;68.90
43679;DHT22;29279;50.858;4.392;2024-03-08T15:45:13;19.20;68.00
43679;DHT22;29279;50.858;4.392;2024-03-08T15:47:39;18.90;68.40
43679;DHT22;29279;50.858;4.392;2024-03-08T15:50:05;18.60;71.10
43679;DHT22;29279;50.858;4.392;2024-03-08T15:52:37;18.40;70.60
43679;DHT22;29279;50.858;4.392;2024-03-08T15:55:06;18.50;69.90
43679;DHT22;29279;50.858;4.392;2024-03-08T15:57:32;18.50;70.90
43679;DHT22;29279;50.858;4.392;2024-03-08T15:59:58;18.20;70.40